sensor_id;sensor_type;location;lat;lon;timestamp;pressure;altitude;pressure_sealevel;temperature;humidity
44103;BME280;29769;42.178;24.742;2024-02-26T00:00:53;99286.66;;;8.32;100.00
44103;BME280;29769;42.178;24.742;2024-02-26T00:03:38;99291.03;;;8.34;100.00
44103;BME280;29769;42.178;24.742;2024-02-26T00:06:26;99274.31;;;8.41;100.00
44103;BME280;29769;42.178;24.742;2024-02-26T00:09:11;99288.03;;;8.62;100.00
44103;BME280;29769;42.178;24.742;2024-02-26T00:11:56;99283.75;;;8.55;100.00
44103;BME280;29769;42.178;24.742;2024-02-26T00:14:42;99285.22;;;8.75;100.00
44103;BME280;29769;42.178;24.742;2024-02-26T00:17:29;99281.47;;;8.91;100.00
44103;BME280;29769;42.178;24.742;2024-02-26T00:20:14;99281.91;;;8.61;100.00
44103;BME280;29769;42.178;24.742;2024-02-26T00:22:59;99253.81;;;8.71;100.00
44103;BME280;29769;42.178;24.742;2024-02-26T00:25:44;99259.75;;;8.83;100.00
44103;BME280;29769;42.178;24.742;2024-02-26T00:28:29;99256.59;;;8.59;100.00
44103;BME280;29769;42.178;24.742;2024-02-26T00:31:14;99248.59;;;8.69;100.00
44103;BME280;29769;42.178;24.742;2024-02-26T00:34:00;99267.56;;;8.86;100.00
44103;BME280;29769;42.178;24.742;2024-02-26T00:36:45;99278.91;;;8.88;100.00
44103;BME280;29769;42.178;24.742;2024-02-26T00:39:30;99268.50;;;8.82;100.00
44103;BME280;29769;42.178;24.742;2024-02-26T00:42:15;99270.28;;;8.80;100.00
44103;BME280;29769;42.178;24.742;2024-02-26T00:45:00;99281.38;;;8.98;100.00
44103;BME280;29769;42.178;24.742;2024-02-26T00:47:45;99270.88;;;8.99;100.00
44103;BME280;29769;42.178;24.742;2024-02-26T00:50:32;99286.41;;;9.11;100.00
44103;BME280;29769;42.178;24.742;2024-02-26T00:53:17;99258.34;;;9.16;100.00
44103;BME280;29769;42.178;24.742;2024-02-26T00:56:01;99251.03;;;9.35;100.00
44103;BME280;29769;42.178;24.742;2024-02-26T00:58:46;99223.63;;;9.50;100.00
44103;BME280;29769;42.178;24.742;2024-02-26T01:01:31;99198.84;;;9.64;100.00
44103;BME280;29769;42.178;24.742;2024-02-26T01:04:16;99213.78;;;9.61;100.00
44103;BME280;29769;42.178;24.742;2024-02-26T01:07:00;99205.03;;;9.62;100.00
44103;BME280;29769;42.178;24.742;2024-02-26T01:09:45;99188.38;;;9.63;100.00
44103;BME280;29769;42.178;24.742;2024-02-26T01:12:30;99175.91;;;9.72;100.00
44103;BME280;29769;42.178;24.742;2024-02-26T01:15:15;99172.41;;;9.73;100.00
44103;BME280;29769;42.178;24.742;2024-02-26T01:18:00;99175.72;;;9.83;100.00
44103;BME280;29769;42.178;24.742;2024-02-26T01:20:44;99200.66;;;9.62;100.00
44103;BME280;29769;42.178;24.742;2024-02-26T01:23:29;99196.63;;;9.43;100.00
44103;BME280;29769;42.178;24.742;2024-02-26T01:26:14;99180.78;;;9.48;100.00
44103;BME280;29769;42.178;24.742;2024-02-26T01:28:59;99212.94;;;9.59;100.00
44103;BME280;29769;42.178;24.742;2024-02-26T01:31:45;99213.13;;;9.50;100.00
44103;BME280;29769;42.178;24.742;2024-02-26T01:34:30;99227.16;;;9.49;100.00
44103;BME280;29769;42.178;24.742;2024-02-26T01:37:15;99222.72;;;9.52;100.00
44103;BME280;29769;42.178;24.742;2024-02-26T01:39:59;99228.94;;;9.45;100.00
44103;BME280;29769;42.178;24.742;2024-02-26T01:42:45;99218.75;;;9.30;100.00
44103;BME280;29769;42.178;24.742;2024-02-26T01:45:30;99218.44;;;9.47;100.00
44103;BME280;29769;42.178;24.742;2024-02-26T01:48:15;99227.78;;;9.61;100.00
44103;BME280;29769;42.178;24.742;2024-02-26T01:51:01;99232.94;;;9.67;100.00
44103;BME280;29769;42.178;24.742;2024-02-26T01:53:46;99227.63;;;9.70;100.00
44103;BME280;29769;42.178;24.742;2024-02-26T01:56:31;99218.16;;;9.62;100.00
44103;BME280;29769;42.178;24.742;2024-02-26T01:59:17;99219.66;;;9.73;100.00
44103;BME280;29769;42.178;24.742;2024-02-26T02:02:05;99206.00;;;9.56;100.00
44103;BME280;29769;42.178;24.742;2024-02-26T02:04:52;99207.78;;;9.54;100.00
44103;BME280;29769;42.178;24.742;2024-02-26T02:07:37;99214.59;;;9.64;100.00
44103;BME280;29769;42.178;24.742;2024-02-26T02:10:22;99225.34;;;9.52;100.00
44103;BME280;29769;42.178;24.742;2024-02-26T02:13:08;99223.34;;;9.63;100.00
44103;BME280;29769;42.178;24.742;2024-02-26T02:15:53;99222.59;;;9.58;100.00
44103;BME280;29769;42.178;24.742;2024-02-26T02:18:38;99211.25;;;9.56;100.00
44103;BME280;29769;42.178;24.742;2024-02-26T02:21:23;99216.50;;;9.56;100.00
44103;BME280;29769;42.178;24.742;2024-02-26T02:24:07;99212.28;;;9.49;100.00
44103;BME280;29769;42.178;24.742;2024-02-26T02:26:52;99213.09;;;9.53;100.00
44103;BME280;29769;42.178;24.742;2024-02-26T02:29:37;99220.09;;;9.51;100.00
44103;BME280;29769;42.178;24.742;2024-02-26T02:32:22;99222.78;;;9.49;100.00
44103;BME280;29769;42.178;24.742;2024-02-26T02:35:09;99227.94;;;9.54;100.00
44103;BME280;29769;42.178;24.742;2024-02-26T02:37:55;99223.53;;;9.54;100.00
44103;BME280;29769;42.178;24.742;2024-02-26T02:40:40;99216.59;;;9.50;100.00
44103;BME280;29769;42.178;24.742;2024-02-26T02:43:25;99210.00;;;9.31;100.00
44103;BME280;29769;42.178;24.742;2024-02-26T02:46:10;99216.16;;;9.27;100.00
44103;BME280;29769;42.178;24.742;2024-02-26T02:48:57;99210.81;;;9.31;100.00
44103;BME280;29769;42.178;24.742;2024-02-26T02:51:42;99206.41;;;9.35;100.00
44103;BME280;29769;42.178;24.742;2024-02-26T02:54:27;99220.53;;;9.28;100.00
44103;BME280;29769;42.178;24.742;2024-02-26T02:57:12;99214.59;;;9.17;100.00
44103;BME280;29769;42.178;24.742;2024-02-26T02:59:57;99212.94;;;9.11;100.00
44103;BME280;29769;42.178;24.742;2024-02-26T03:02:42;99222.47;;;9.17;100.00
44103;BME280;29769;42.178;24.742;2024-02-26T03:05:27;99223.38;;;9.14;100.00
44103;BME280;29769;42.178;24.742;2024-02-26T03:08:12;99235.94;;;8.96;100.00
44103;BME280;29769;42.178;24.742;2024-02-26T03:10:58;99235.13;;;8.90;100.00
44103;BME280;29769;42.178;24.742;2024-02-26T03:13:43;99217.75;;;8.85;100.00
44103;BME280;29769;42.178;24.742;2024-02-26T03:16:28;99222.09;;;8.86;100.00
44103;BME280;29769;42.178;24.742;2024-02-26T03:19:16;99230.03;;;8.81;100.00
44103;BME280;29769;42.178;24.742;2024-02-26T03:22:01;99228.22;;;8.86;100.00
44103;BME280;29769;42.178;24.742;2024-02-26T03:24:46;99225.34;;;9.02;100.00
44103;BME280;29769;42.178;24.742;2024-02-26T03:27:31;99232.25;;;9.07;100.00
44103;BME280;29769;42.178;24.742;2024-02-26T03:30:16;99234.84;;;9.09;100.00
44103;BME280;29769;42.178;24.742;2024-02-26T03:33:01;99233.16;;;9.05;100.00
44103;BME280;29769;42.178;24.742;2024-02-26T03:35:46;99224.47;;;9.03;100.00
44103;BME280;29769;42.178;24.742;2024-02-26T03:38:31;99225.28;;;9.05;100.00
44103;BME280;29769;42.178;24.742;2024-02-26T03:41:16;99227.72;;;9.17;100.00
44103;BME280;29769;42.178;24.742;2024-02-26T03:44:01;99228.53;;;9.20;100.00
44103;BME280;29769;42.178;24.742;2024-02-26T03:46:46;99217.22;;;9.17;100.00
44103;BME280;29769;42.178;24.742;2024-02-26T03:49:31;99221.53;;;9.21;100.00
44103;BME280;29769;42.178;24.742;2024-02-26T03:52:16;99222.19;;;9.32;100.00
44103;BME280;29769;42.178;24.742;2024-02-26T03:55:01;99231.72;;;9.37;100.00
44103;BME280;29769;42.178;24.742;2024-02-26T03:57:46;99225.53;;;9.42;100.00
44103;BME280;29769;42.178;24.742;2024-02-26T04:00:31;99220.41;;;9.35;100.00
44103;BME280;29769;42.178;24.742;2024-02-26T04:03:16;99233.44;;;9.40;100.00
44103;BME280;29769;42.178;24.742;2024-02-26T04:06:02;99233.44;;;9.40;100.00
44103;BME280;29769;42.178;24.742;2024-02-26T04:08:47;99237.75;;;9.44;100.00
44103;BME280;29769;42.178;24.742;2024-02-26T04:11:33;99241.19;;;9.46;100.00
44103;BME280;29769;42.178;24.742;2024-02-26T04:14:18;99235.94;;;9.48;100.00
44103;BME280;29769;42.178;24.742;2024-02-26T04:17:03;99233.22;;;9.52;100.00
44103;BME280;29769;42.178;24.742;2024-02-26T04:19:47;99229.66;;;9.55;100.00
44103;BME280;29769;42.178;24.742;2024-02-26T04:22:32;99224.47;;;9.52;100.00
44103;BME280;29769;42.178;24.742;2024-02-26T04:25:17;99237.44;;;9.61;100.00
44103;BME280;29769;42.178;24.742;2024-02-26T04:28:02;99234.72;;;9.64;100.00
44103;BME280;29769;42.178;24.742;2024-02-26T04:30:47;99229.47;;;9.65;100.00
44103;BME280;29769;42.178;24.742;2024-02-26T04:33:34;99222.44;;;9.67;100.00
44103;BME280;29769;42.178;24.742;2024-02-26T04:36:19;99225.88;;;9.69;100.00
44103;BME280;29769;42.178;24.742;2024-02-26T04:39:04;99237.94;;;9.79;100.00
44103;BME280;29769;42.178;24.742;2024-02-26T04:41:49;99230.88;;;9.81;100.00
44103;BME280;29769;42.178;24.742;2024-02-26T04:44:33;99240.56;;;9.81;100.00
44103;BME280;29769;42.178;24.742;2024-02-26T04:47:18;99247.50;;;9.83;100.00
44103;BME280;29769;42.178;24.742;2024-02-26T04:50:04;99242.25;;;9.83;100.00
44103;BME280;29769;42.178;24.742;2024-02-26T04:52:49;99246.59;;;9.85;100.00
44103;BME280;29769;42.178;24.742;2024-02-26T04:55:34;99240.41;;;9.89;100.00
44103;BME280;29769;42.178;24.742;2024-02-26T04:58:19;99242.09;;;9.91;100.00
44103;BME280;29769;42.178;24.742;2024-02-26T05:01:04;99220.47;;;9.77;100.00
44103;BME280;29769;42.178;24.742;2024-02-26T05:03:49;99252.41;;;10.00;100.00
44103;BME280;29769;42.178;24.742;2024-02-26T05:06:36;99253.34;;;9.99;100.00
44103;BME280;29769;42.178;24.742;2024-02-26T05:09:20;99249.97;;;9.91;100.00
44103;BME280;29769;42.178;24.742;2024-02-26T05:12:06;99256.09;;;9.92;100.00
44103;BME280;29769;42.178;24.742;2024-02-26T05:14:50;99262.22;;;9.91;100.00
44103;BME280;29769;42.178;24.742;2024-02-26T05:17:35;99255.28;;;9.88;100.00
44103;BME280;29769;42.178;24.742;2024-02-26T05:20:20;99257.97;;;9.85;100.00
44103;BME280;29769;42.178;24.742;2024-02-26T05:23:05;99250.97;;;9.86;100.00
44103;BME280;29769;42.178;24.742;2024-02-26T05:25:50;99257.91;;;9.90;100.00
44103;BME280;29769;42.178;24.742;2024-02-26T05:28:34;99265.88;;;9.85;100.00
44103;BME280;29769;42.178;24.742;2024-02-26T05:31:19;99271.13;;;9.83;100.00
44103;BME280;29769;42.178;24.742;2024-02-26T05:34:04;99274.63;;;9.84;100.00
44103;BME280;29769;42.178;24.742;2024-02-26T05:36:49;99273.69;;;9.88;100.00
44103;BME280;29769;42.178;24.742;2024-02-26T05:39:34;99276.25;;;9.91;100.00
44103;BME280;29769;42.178;24.742;2024-02-26T05:42:19;99286.63;;;9.99;100.00
44103;BME280;29769;42.178;24.742;2024-02-26T05:45:04;99282.25;;;9.98;100.00
44103;BME280;29769;42.178;24.742;2024-02-26T05:47:50;99275.25;;;9.97;100.00
44103;BME280;29769;42.178;24.742;2024-02-26T05:50:35;99288.09;;;10.12;100.00
44103;BME280;29769;42.178;24.742;2024-02-26T05:53:20;99288.09;;;10.12;100.00
44103;BME280;29769;42.178;24.742;2024-02-26T05:56:06;99268.94;;;10.05;100.00
44103;BME280;29769;42.178;24.742;2024-02-26T05:58:51;99296.81;;;10.15;100.00
44103;BME280;29769;42.178;24.742;2024-02-26T06:01:36;99293.94;;;10.27;100.00
44103;BME280;29769;42.178;24.742;2024-02-26T06:04:21;99302.56;;;10.34;100.00
44103;BME280;29769;42.178;24.742;2024-02-26T06:07:06;99302.75;;;10.27;100.00
44103;BME280;29769;42.178;24.742;2024-02-26T06:09:51;99309.53;;;10.37;100.00
44103;BME280;29769;42.178;24.742;2024-02-26T06:12:36;99297.31;;;10.34;100.00
44103;BME280;29769;42.178;24.742;2024-02-26T06:15:21;99308.53;;;10.44;100.00
44103;BME280;29769;42.178;24.742;2024-02-26T06:18:06;99319.22;;;10.35;100.00
44103;BME280;29769;42.178;24.742;2024-02-26T06:20:50;99316.78;;;10.24;100.00
44103;BME280;29769;42.178;24.742;2024-02-26T06:23:35;99321.97;;;10.29;100.00
44103;BME280;29769;42.178;24.742;2024-02-26T06:26:20;99319.06;;;10.41;100.00
44103;BME280;29769;42.178;24.742;2024-02-26T06:29:05;99322.44;;;10.49;100.00
44103;BME280;29769;42.178;24.742;2024-02-26T06:31:50;99320.63;;;10.51;100.00
44103;BME280;29769;42.178;24.742;2024-02-26T06:34:35;99324.00;;;10.57;100.00
44103;BME280;29769;42.178;24.742;2024-02-26T06:37:20;99328.31;;;10.61;100.00
44103;BME280;29769;42.178;24.742;2024-02-26T06:40:06;99332.47;;;10.72;100.00
44103;BME280;29769;42.178;24.742;2024-02-26T06:42:51;99329.78;;;10.73;100.00
44103;BME280;29769;42.178;24.742;2024-02-26T06:45:35;99330.44;;;10.84;100.00
44103;BME280;29769;42.178;24.742;2024-02-26T06:48:22;99342.53;;;10.93;100.00
44103;BME280;29769;42.178;24.742;2024-02-26T06:51:07;99340.56;;;11.02;100.00
44103;BME280;29769;42.178;24.742;2024-02-26T06:53:52;99304.13;;;10.84;100.00
44103;BME280;29769;42.178;24.742;2024-02-26T06:56:36;99335.94;;;11.12;100.00
44103;BME280;29769;42.178;24.742;2024-02-26T06:59:21;99336.66;;;11.19;100.00
44103;BME280;29769;42.178;24.742;2024-02-26T07:02:08;99338.28;;;11.24;100.00
44103;BME280;29769;42.178;24.742;2024-02-26T07:04:53;99333.69;;;11.32;100.00
44103;BME280;29769;42.178;24.742;2024-02-26T07:07:37;99342.31;;;11.39;100.00
44103;BME280;29769;42.178;24.742;2024-02-26T07:10:22;99337.81;;;11.44;100.00
44103;BME280;29769;42.178;24.742;2024-02-26T07:13:07;99341.00;;;11.56;100.00
44103;BME280;29769;42.178;24.742;2024-02-26T07:15:52;99345.16;;;11.67;100.00
44103;BME280;29769;42.178;24.742;2024-02-26T07:18:37;99342.47;;;11.68;100.00
44103;BME280;29769;42.178;24.742;2024-02-26T07:21:22;99336.13;;;11.77;100.00
44103;BME280;29769;42.178;24.742;2024-02-26T07:24:08;99341.16;;;11.86;100.00
44103;BME280;29769;42.178;24.742;2024-02-26T07:26:53;99332.34;;;11.87;100.00
44103;BME280;29769;42.178;24.742;2024-02-26T07:29:39;99340.66;;;12.04;100.00
44103;BME280;29769;42.178;24.742;2024-02-26T07:32:24;99340.38;;;12.15;100.00
44103;BME280;29769;42.178;24.742;2024-02-26T07:35:09;99346.31;;;12.23;100.00
44103;BME280;29769;42.178;24.742;2024-02-26T07:37:54;99338.41;;;12.23;100.00
44103;BME280;29769;42.178;24.742;2024-02-26T07:40:39;99351.19;;;12.36;100.00
44103;BME280;29769;42.178;24.742;2024-02-26T07:43:24;99346.66;;;12.41;100.00
44103;BME280;29769;42.178;24.742;2024-02-26T07:46:11;99339.47;;;12.48;100.00
44103;BME280;29769;42.178;24.742;2024-02-26T07:48:56;99342.84;;;12.53;100.00
44103;BME280;29769;42.178;24.742;2024-02-26T07:51:41;99345.34;;;12.58;100.00
44103;BME280;29769;42.178;24.742;2024-02-26T07:54:26;99347.75;;;12.65;100.00
44103;BME280;29769;42.178;24.742;2024-02-26T07:57:11;99347.63;;;12.70;100.00
44103;BME280;29769;42.178;24.742;2024-02-26T07:59:56;99332.47;;;12.76;100.00
44103;BME280;29769;42.178;24.742;2024-02-26T08:02:41;99336.50;;;12.88;100.00
44103;BME280;29769;42.178;24.742;2024-02-26T08:05:26;99335.50;;;12.92;100.00
44103;BME280;29769;42.178;24.742;2024-02-26T08:08:11;99330.97;;;12.96;100.00
44103;BME280;29769;42.178;24.742;2024-02-26T08:10:55;99338.47;;;13.11;100.00
44103;BME280;29769;42.178;24.742;2024-02-26T08:13:40;99332.50;;;13.32;100.00
44103;BME280;29769;42.178;24.742;2024-02-26T08:16:24;99322.47;;;13.43;100.00
44103;BME280;29769;42.178;24.742;2024-02-26T08:19:09;99336.47;;;13.45;100.00
44103;BME280;29769;42.178;24.742;2024-02-26T08:21:55;99324.81;;;13.52;100.00
44103;BME280;29769;42.178;24.742;2024-02-26T08:24:40;99332.16;;;13.69;100.00
44103;BME280;29769;42.178;24.742;2024-02-26T08:27:25;99332.56;;;13.83;100.00
44103;BME280;29769;42.178;24.742;2024-02-26T08:30:11;99333.41;;;13.85;100.00
44103;BME280;29769;42.178;24.742;2024-02-26T08:32:58;99333.34;;;14.11;100.00
44103;BME280;29769;42.178;24.742;2024-02-26T08:35:43;99341.28;;;14.11;100.00
44103;BME280;29769;42.178;24.742;2024-02-26T08:38:28;99339.22;;;13.95;100.00
44103;BME280;29769;42.178;24.742;2024-02-26T08:41:13;99333.09;;;13.94;100.00
44103;BME280;29769;42.178;24.742;2024-02-26T08:43:58;99316.13;;;14.24;100.00
44103;BME280;29769;42.178;24.742;2024-02-26T08:46:43;99331.50;;;14.40;100.00
44103;BME280;29769;42.178;24.742;2024-02-26T08:49:28;99331.38;;;14.43;100.00
44103;BME280;29769;42.178;24.742;2024-02-26T08:52:14;99328.25;;;14.55;100.00
44103;BME280;29769;42.178;24.742;2024-02-26T08:55:00;99330.56;;;14.87;100.00
44103;BME280;29769;42.178;24.742;2024-02-26T08:57:45;99319.25;;;15.05;100.00
44103;BME280;29769;42.178;24.742;2024-02-26T09:00:30;99315.13;;;15.20;100.00
44103;BME280;29769;42.178;24.742;2024-02-26T09:03:15;99326.59;;;15.42;100.00
44103;BME280;29769;42.178;24.742;2024-02-26T09:06:01;99312.44;;;15.65;100.00
44103;BME280;29769;42.178;24.742;2024-02-26T09:08:46;99313.91;;;15.92;100.00
44103;BME280;29769;42.178;24.742;2024-02-26T09:11:31;99317.75;;;16.06;100.00
44103;BME280;29769;42.178;24.742;2024-02-26T09:14:17;99317.22;;;16.18;100.00
44103;BME280;29769;42.178;24.742;2024-02-26T09:17:02;99323.13;;;16.24;100.00
44103;BME280;29769;42.178;24.742;2024-02-26T09:19:47;99317.88;;;16.23;100.00
44103;BME280;29769;42.178;24.742;2024-02-26T09:22:32;99314.69;;;16.35;100.00
44103;BME280;29769;42.178;24.742;2024-02-26T09:25:17;99324.38;;;16.36;100.00
44103;BME280;29769;42.178;24.742;2024-02-26T09:28:02;99305.38;;;16.45;100.00
44103;BME280;29769;42.178;24.742;2024-02-26T09:30:47;99318.53;;;16.48;99.63
44103;BME280;29769;42.178;24.742;2024-02-26T09:33:33;99321.00;;;15.92;100.00
44103;BME280;29769;42.178;24.742;2024-02-26T09:36:18;99309.91;;;15.82;100.00
44103;BME280;29769;42.178;24.742;2024-02-26T09:39:03;99313.00;;;15.72;100.00
44103;BME280;29769;42.178;24.742;2024-02-26T09:41:48;99312.09;;;16.13;100.00
44103;BME280;29769;42.178;24.742;2024-02-26T09:44:34;99302.56;;;16.09;100.00
44103;BME280;29769;42.178;24.742;2024-02-26T09:47:26;99306.50;;;16.60;100.00
44103;BME280;29769;42.178;24.742;2024-02-26T09:50:13;99302.50;;;17.07;96.19
44103;BME280;29769;42.178;24.742;2024-02-26T09:52:59;99299.41;;;17.16;92.83
44103;BME280;29769;42.178;24.742;2024-02-26T09:55:47;99283.47;;;17.69;89.13
44103;BME280;29769;42.178;24.742;2024-02-26T09:58:32;99296.22;;;18.64;84.43
44103;BME280;29769;42.178;24.742;2024-02-26T10:01:18;99285.84;;;19.38;76.61
44103;BME280;29769;42.178;24.742;2024-02-26T10:04:04;99280.78;;;19.79;71.29
44103;BME280;29769;42.178;24.742;2024-02-26T10:06:49;99281.19;;;20.31;67.35
44103;BME280;29769;42.178;24.742;2024-02-26T10:09:34;99268.28;;;20.80;63.74
44103;BME280;29769;42.178;24.742;2024-02-26T10:12:19;99265.13;;;21.02;61.89
44103;BME280;29769;42.178;24.742;2024-02-26T10:15:05;99250.66;;;20.78;60.69
44103;BME280;29769;42.178;24.742;2024-02-26T10:17:50;99248.41;;;21.66;58.15
44103;BME280;29769;42.178;24.742;2024-02-26T10:20:35;99236.69;;;22.07;55.86
44103;BME280;29769;42.178;24.742;2024-02-26T10:23:20;99235.31;;;22.39;53.03
44103;BME280;29769;42.178;24.742;2024-02-26T10:26:05;99240.44;;;22.30;52.36
44103;BME280;29769;42.178;24.742;2024-02-26T10:28:50;99233.03;;;21.43;54.90
44103;BME280;29769;42.178;24.742;2024-02-26T10:31:35;99238.22;;;21.32;55.76
44103;BME280;29769;42.178;24.742;2024-02-26T10:34:20;99231.91;;;21.72;54.76
44103;BME280;29769;42.178;24.742;2024-02-26T10:37:05;99210.97;;;22.17;53.57
44103;BME280;29769;42.178;24.742;2024-02-26T10:39:50;99202.91;;;22.17;53.11
44103;BME280;29769;42.178;24.742;2024-02-26T10:42:35;99208.91;;;21.83;50.93
44103;BME280;29769;42.178;24.742;2024-02-26T10:45:20;99213.34;;;21.57;51.54
44103;BME280;29769;42.178;24.742;2024-02-26T10:48:09;99209.88;;;21.42;52.74
44103;BME280;29769;42.178;24.742;2024-02-26T10:50:55;99201.94;;;21.80;52.47
44103;BME280;29769;42.178;24.742;2024-02-26T10:53:42;99215.34;;;22.31;51.18
44103;BME280;29769;42.178;24.742;2024-02-26T10:56:30;99206.66;;;21.89;51.62
44103;BME280;29769;42.178;24.742;2024-02-26T10:59:18;99201.50;;;21.73;51.67
44103;BME280;29769;42.178;24.742;2024-02-26T11:02:07;99198.78;;;21.48;52.23
44103;BME280;29769;42.178;24.742;2024-02-26T11:04:54;99193.47;;;21.86;51.93
44103;BME280;29769;42.178;24.742;2024-02-26T11:07:41;99196.72;;;22.04;50.44
44103;BME280;29769;42.178;24.742;2024-02-26T11:10:27;99177.75;;;22.81;49.23
44103;BME280;29769;42.178;24.742;2024-02-26T11:13:15;99180.97;;;23.10;46.81
44103;BME280;29769;42.178;24.742;2024-02-26T11:16:03;99173.69;;;22.63;47.70
44103;BME280;29769;42.178;24.742;2024-02-26T11:18:49;99179.22;;;21.86;49.64
44103;BME280;29769;42.178;24.742;2024-02-26T11:21:34;99167.22;;;21.79;50.68
44103;BME280;29769;42.178;24.742;2024-02-26T11:24:26;99167.41;;;21.63;49.30
44103;BME280;29769;42.178;24.742;2024-02-26T11:27:12;99160.47;;;21.48;50.34
44103;BME280;29769;42.178;24.742;2024-02-26T11:29:58;99160.66;;;21.45;50.50
44103;BME280;29769;42.178;24.742;2024-02-26T11:32:45;99165.44;;;21.27;51.65
44103;BME280;29769;42.178;24.742;2024-02-26T11:35:36;99157.03;;;21.58;51.09
44103;BME280;29769;42.178;24.742;2024-02-26T11:38:22;99157.22;;;22.07;50.59
44103;BME280;29769;42.178;24.742;2024-02-26T11:41:08;99149.69;;;22.25;49.09
44103;BME280;29769;42.178;24.742;2024-02-26T11:43:58;99133.94;;;22.21;49.02
44103;BME280;29769;42.178;24.742;2024-02-26T11:46:45;99142.81;;;22.08;48.42
44103;BME280;29769;42.178;24.742;2024-02-26T11:49:31;99137.38;;;21.20;50.79
44103;BME280;29769;42.178;24.742;2024-02-26T11:52:16;99147.03;;;21.08;52.30
44103;BME280;29769;42.178;24.742;2024-02-26T11:55:01;99140.59;;;19.88;56.49
44103;BME280;29769;42.178;24.742;2024-02-26T11:57:47;99133.66;;;20.55;55.43
44103;BME280;29769;42.178;24.742;2024-02-26T12:00:31;99127.38;;;20.82;54.54
44103;BME280;29769;42.178;24.742;2024-02-26T12:03:18;99137.38;;;20.66;54.13
44103;BME280;29769;42.178;24.742;2024-02-26T12:06:03;99133.03;;;21.05;53.10
44103;BME280;29769;42.178;24.742;2024-02-26T12:08:48;99121.25;;;21.34;52.28
44103;BME280;29769;42.178;24.742;2024-02-26T12:11:33;99130.88;;;21.37;51.67
44103;BME280;29769;42.178;24.742;2024-02-26T12:14:25;99127.50;;;21.60;51.92
44103;BME280;29769;42.178;24.742;2024-02-26T12:17:23;99119.78;;;21.81;50.06
44103;BME280;29769;42.178;24.742;2024-02-26T12:20:12;99118.34;;;21.24;52.08
44103;BME280;29769;42.178;24.742;2024-02-26T12:22:58;99114.75;;;21.51;52.05
44103;BME280;29769;42.178;24.742;2024-02-26T12:25:43;99113.78;;;21.64;50.65
44103;BME280;29769;42.178;24.742;2024-02-26T12:28:29;99122.84;;;20.44;54.34
44103;BME280;29769;42.178;24.742;2024-02-26T12:31:14;99114.28;;;20.92;53.80
44103;BME280;29769;42.178;24.742;2024-02-26T12:34:00;99109.63;;;21.48;51.66
44103;BME280;29769;42.178;24.742;2024-02-26T12:36:45;99112.28;;;22.24;49.12
44103;BME280;29769;42.178;24.742;2024-02-26T12:39:30;99107.81;;;22.48;47.52
44103;BME280;29769;42.178;24.742;2024-02-26T12:42:15;99106.72;;;21.76;49.00
44103;BME280;29769;42.178;24.742;2024-02-26T12:45:00;99106.19;;;21.46;49.72
44103;BME280;29769;42.178;24.742;2024-02-26T12:47:46;99108.03;;;21.96;48.48
44103;BME280;29769;42.178;24.742;2024-02-26T12:50:30;99097.25;;;22.70;47.12
44103;BME280;29769;42.178;24.742;2024-02-26T12:53:17;99095.06;;;22.02;47.90
44103;BME280;29769;42.178;24.742;2024-02-26T12:56:03;99097.38;;;22.20;48.02
44103;BME280;29769;42.178;24.742;2024-02-26T12:58:50;99097.72;;;21.90;47.84
44103;BME280;29769;42.178;24.742;2024-02-26T13:01:36;99093.78;;;21.57;48.48
44103;BME280;29769;42.178;24.742;2024-02-26T13:04:23;99096.88;;;21.77;48.52
44103;BME280;29769;42.178;24.742;2024-02-26T13:07:09;99098.97;;;22.22;46.86
44103;BME280;29769;42.178;24.742;2024-02-26T13:09:54;99096.34;;;22.09;46.38
44103;BME280;29769;42.178;24.742;2024-02-26T13:12:46;99102.44;;;21.86;47.03
44103;BME280;29769;42.178;24.742;2024-02-26T13:15:32;99098.03;;;21.85;47.12
44103;BME280;29769;42.178;24.742;2024-02-26T13:18:17;99090.66;;;21.76;47.13
44103;BME280;29769;42.178;24.742;2024-02-26T13:21:13;99099.13;;;21.70;47.33
44103;BME280;29769;42.178;24.742;2024-02-26T13:23:59;99100.06;;;21.82;47.39
44103;BME280;29769;42.178;24.742;2024-02-26T13:26:44;99107.69;;;22.00;47.12
44103;BME280;29769;42.178;24.742;2024-02-26T13:29:29;99098.56;;;21.90;47.14
44103;BME280;29769;42.178;24.742;2024-02-26T13:32:14;99101.69;;;21.59;47.73
44103;BME280;29769;42.178;24.742;2024-02-26T13:35:10;99117.84;;;21.05;49.52
44103;BME280;29769;42.178;24.742;2024-02-26T13:37:55;99118.06;;;20.49;51.86
44103;BME280;29769;42.178;24.742;2024-02-26T13:40:40;99125.84;;;20.66;51.61
44103;BME280;29769;42.178;24.742;2024-02-26T13:43:25;99120.13;;;20.84;50.71
44103;BME280;29769;42.178;24.742;2024-02-26T13:46:10;99119.00;;;21.01;50.49
44103;BME280;29769;42.178;24.742;2024-02-26T13:48:57;99111.09;;;20.73;51.31
44103;BME280;29769;42.178;24.742;2024-02-26T13:51:42;99134.69;;;20.39;52.68
44103;BME280;29769;42.178;24.742;2024-02-26T13:54:27;99130.66;;;20.32;53.50
44103;BME280;29769;42.178;24.742;2024-02-26T13:57:12;99110.00;;;20.08;54.27
44103;BME280;29769;42.178;24.742;2024-02-26T13:59:57;99137.03;;;19.59;54.25
44103;BME280;29769;42.178;24.742;2024-02-26T14:02:42;99141.34;;;19.62;54.84
44103;BME280;29769;42.178;24.742;2024-02-26T14:05:27;99135.19;;;19.45;52.67
44103;BME280;29769;42.178;24.742;2024-02-26T14:08:13;99132.94;;;18.62;54.98
44103;BME280;29769;42.178;24.742;2024-02-26T14:10:57;99150.16;;;18.08;56.98
44103;BME280;29769;42.178;24.742;2024-02-26T14:13:44;99142.16;;;17.93;59.09
44103;BME280;29769;42.178;24.742;2024-02-26T14:16:31;99147.41;;;17.77;64.90
44103;BME280;29769;42.178;24.742;2024-02-26T14:19:16;99142.66;;;17.99;66.08
44103;BME280;29769;42.178;24.742;2024-02-26T14:22:01;99152.72;;;18.10;66.18